< < Back
Terminal Aerodrome Forecast


Current Version              Previous Versions:   1  2  3  4  5  6  7  8  9  

Terminal Aerodrome Forecast

096
FTUS44 KBMX 201700 RRA
TAFBHM
TAF
KBHM 201743Z 2018/2118 VRB02KT P6SM FEW120=



Latest METAR

584
SAUS70 KWBC 210800 RRC
MTRBHM
METAR KBHM 210753Z 00000KT 10SM CLR 11/09 A3005 RMK AO2 SLP170
T01060094


USA.gov is the U.S. government's official web portal to all federal, state and local government web resources and services.